createdAt,value
2019-04-03T00:01:16.295Z,17.07
2019-04-03T00:03:44.726Z,18.57
2019-04-03T00:06:13.179Z,21.83
2019-04-03T00:08:41.674Z,20.67
2019-04-03T00:11:11.289Z,22.60
2019-04-03T00:13:42.905Z,20.63
2019-04-03T00:16:11.627Z,22.80
2019-04-03T00:18:41.583Z,22.53
2019-04-03T00:21:11.885Z,23.23
2019-04-03T00:23:40.445Z,25.83
2019-04-03T00:26:08.883Z,24.20
2019-04-03T00:28:37.230Z,20.60
2019-04-03T00:31:05.690Z,22.77
2019-04-03T00:33:34.043Z,26.97
2019-04-03T00:36:02.414Z,24.40
2019-04-03T00:38:30.870Z,22.10
2019-04-03T00:41:00.221Z,23.47
2019-04-03T00:43:28.777Z,24.17
2019-04-03T00:45:57.171Z,24.33
2019-04-03T00:48:26.119Z,27.37
2019-04-03T00:50:56.481Z,24.63
2019-04-03T00:53:25.972Z,24.20
2019-04-03T00:55:56.530Z,24.47
2019-04-03T00:58:55.003Z,27.00
2019-04-03T01:01:24.729Z,28.57
2019-04-03T01:03:53.484Z,29.83
2019-04-03T01:06:22.027Z,30.70
2019-04-03T01:08:50.419Z,28.07
2019-04-03T01:11:19.093Z,32.13
2019-04-03T01:13:47.484Z,31.53
2019-04-03T01:16:23.063Z,29.23
2019-04-03T01:18:51.475Z,30.83
2019-04-03T01:21:19.906Z,31.77
2019-04-03T01:23:48.377Z,31.77
2019-04-03T01:26:16.812Z,34.67
2019-04-03T01:28:45.283Z,33.43
2019-04-03T01:31:14.891Z,28.73
2019-04-03T01:33:46.089Z,29.23
2019-04-03T01:36:13.813Z,28.43
2019-04-03T01:38:42.186Z,29.57
2019-04-03T01:41:10.637Z,35.33
2019-04-03T01:43:39.099Z,28.90
2019-04-03T01:46:08.643Z,29.67
2019-04-03T01:48:37.015Z,30.20
2019-04-03T01:51:05.452Z,27.77
2019-04-03T01:53:33.828Z,30.73
2019-04-03T01:56:04.309Z,30.10
2019-04-03T01:58:32.384Z,28.17
2019-04-03T02:01:00.852Z,31.50
2019-04-03T02:03:29.337Z,24.77
2019-04-03T02:05:57.892Z,23.80
2019-04-03T02:08:26.531Z,24.10
2019-04-03T02:10:55.097Z,26.00
2019-04-03T02:13:23.633Z,26.90
2019-04-03T02:15:52.555Z,23.73
2019-04-03T02:18:21.494Z,20.17
2019-04-03T02:20:49.864Z,20.27
2019-04-03T02:23:20.364Z,21.27
2019-04-03T02:25:48.724Z,21.40
2019-04-03T02:28:17.093Z,23.13
2019-04-03T02:30:47.132Z,19.30
2019-04-03T02:33:15.734Z,20.13
2019-04-03T02:35:44.283Z,20.10
2019-04-03T02:38:12.652Z,21.40
2019-04-03T02:40:41.377Z,20.07
2019-04-03T02:43:13.451Z,18.77
2019-04-03T02:45:40.632Z,18.20
2019-04-03T02:48:09.123Z,20.80
2019-04-03T02:50:37.753Z,19.20
2019-04-03T02:53:06.876Z,24.20
2019-04-03T02:55:39.317Z,17.77
2019-04-03T02:58:05.532Z,18.83
2019-04-03T03:00:34.049Z,18.37
2019-04-03T03:03:02.853Z,20.40
2019-04-03T03:05:31.404Z,23.10
2019-04-03T03:07:59.887Z,21.03
2019-04-03T03:10:30.909Z,21.53
2019-04-03T03:13:01.065Z,21.20
2019-04-03T03:15:29.543Z,22.43
2019-04-03T03:17:58.394Z,21.33
2019-04-03T03:20:28.756Z,19.40
2019-04-03T03:22:57.472Z,17.67
2019-04-03T03:25:25.996Z,15.30
2019-04-03T03:27:54.475Z,13.30
2019-04-03T03:30:41.187Z,11.80
2019-04-03T03:33:10.142Z,13.93
2019-04-03T03:35:30.605Z,13.57
2019-04-03T03:37:54.151Z,14.53
2019-04-03T03:40:22.767Z,14.43
2019-04-03T03:42:51.370Z,13.43
2019-04-03T03:45:21.069Z,14.80
2019-04-03T03:47:51.057Z,13.33
2019-04-03T03:50:25.114Z,11.80
2019-04-03T03:52:54.521Z,12.47
2019-04-03T03:55:25.504Z,11.87
2019-04-03T03:57:54.097Z,12.70
2019-04-03T04:00:23.363Z,13.47
2019-04-03T04:02:53.090Z,12.90
2019-04-03T04:05:22.948Z,11.33
2019-04-03T04:07:52.015Z,11.10
2019-04-03T04:10:23.910Z,12.77
2019-04-03T04:12:51.824Z,10.47
2019-04-03T04:15:20.302Z,13.03
2019-04-03T04:17:51.121Z,12.73
2019-04-03T04:20:26.283Z,12.43
2019-04-03T04:22:55.098Z,11.73
2019-04-03T04:25:23.730Z,12.93
2019-04-03T04:27:52.358Z,14.80
2019-04-03T04:30:20.910Z,12.17
2019-04-03T04:32:49.376Z,14.53
2019-04-03T04:35:20.694Z,17.27
2019-04-03T04:37:48.219Z,12.60
2019-04-03T04:40:16.591Z,14.47
2019-04-03T04:42:45.072Z,13.17
2019-04-03T04:45:13.654Z,14.37
2019-04-03T04:47:42.018Z,13.90
2019-04-03T04:50:10.721Z,15.33
2019-04-03T04:52:41.588Z,14.37
2019-04-03T04:55:10.055Z,11.10
2019-04-03T04:57:40.236Z,12.47
2019-04-03T05:00:09.840Z,13.63
2019-04-03T05:02:38.212Z,18.20
2019-04-03T05:05:09.062Z,16.17
2019-04-03T05:07:41.964Z,14.10
2019-04-03T05:10:10.438Z,13.07
2019-04-03T05:12:40.451Z,15.40
2019-04-03T05:15:09.828Z,16.13
2019-04-03T05:17:38.357Z,16.10
2019-04-03T05:20:07.008Z,15.93
2019-04-03T05:22:35.454Z,19.47
2019-04-03T05:25:04.043Z,16.93
2019-04-03T05:27:34.423Z,15.73
2019-04-03T05:30:05.528Z,13.73
2019-04-03T05:32:32.769Z,16.67
2019-04-03T05:35:01.172Z,14.20
2019-04-03T05:37:29.607Z,19.17
2019-04-03T05:39:57.979Z,16.50
2019-04-03T05:42:26.982Z,14.53
2019-04-03T05:44:56.505Z,15.57
2019-04-03T05:47:25.028Z,18.67
2019-04-03T05:49:55.601Z,20.10
2019-04-03T05:52:23.652Z,19.73
2019-04-03T05:54:52.358Z,20.70
2019-04-03T05:57:20.815Z,19.07
2019-04-03T05:59:59.796Z,23.30
2019-04-03T06:02:20.961Z,23.00
2019-04-03T06:04:49.544Z,24.33
2019-04-03T06:07:18.661Z,24.93
2019-04-03T06:09:47.315Z,22.87
2019-04-03T06:12:18.253Z,23.70
2019-04-03T06:14:45.826Z,25.53
2019-04-03T06:17:14.393Z,27.63
2019-04-03T06:19:43.083Z,23.73
2019-04-03T06:22:11.866Z,27.43
2019-04-03T06:24:40.582Z,26.83
2019-04-03T06:27:10.068Z,24.53
2019-04-03T06:29:38.939Z,26.10
2019-04-03T06:32:07.464Z,28.47
2019-04-03T06:34:38.431Z,28.57
2019-04-03T06:37:06.043Z,29.07
2019-04-03T06:39:34.809Z,26.43
2019-04-03T06:42:03.407Z,27.53
2019-04-03T06:44:31.865Z,27.50
2019-04-03T06:47:00.872Z,25.90
2019-04-03T06:49:30.099Z,26.83
2019-04-03T06:51:58.601Z,28.10
2019-04-03T06:54:27.127Z,29.47
2019-04-03T06:56:55.543Z,27.67
2019-04-03T06:59:23.948Z,30.40
2019-04-03T07:01:53.274Z,26.60
2019-04-03T07:04:22.046Z,26.93
2019-04-03T07:06:50.612Z,29.73
2019-04-03T07:09:24.325Z,29.23
2019-04-03T07:11:49.320Z,26.63
2019-04-03T07:14:17.973Z,26.80
2019-04-03T07:16:46.584Z,27.50
2019-04-03T07:19:15.144Z,29.13
2019-04-03T07:21:43.614Z,30.17
2019-04-03T07:24:12.221Z,31.93
2019-04-03T07:26:40.735Z,28.23
2019-04-03T07:29:11.675Z,28.47
2019-04-03T07:31:39.325Z,32.43
2019-04-03T07:34:08.155Z,33.13
2019-04-03T07:36:36.687Z,31.13
2019-04-03T07:39:06.355Z,34.27
2019-04-03T07:41:34.859Z,37.57
2019-04-03T07:44:03.347Z,40.00
2019-04-03T07:46:33.245Z,38.73
2019-04-03T07:49:02.043Z,32.07
2019-04-03T07:51:30.553Z,31.73
2019-04-03T07:53:59.212Z,36.90
2019-04-03T07:56:27.789Z,32.63
2019-04-03T07:58:56.324Z,34.30
2019-04-03T08:01:24.820Z,34.77
2019-04-03T08:03:53.429Z,32.33
2019-04-03T08:06:22.352Z,29.30
2019-04-03T08:09:05.375Z,35.47
2019-04-03T08:11:21.217Z,34.03
2019-04-03T08:13:49.608Z,25.70
2019-04-03T08:16:18.085Z,32.03
2019-04-03T08:18:46.586Z,28.33
2019-04-03T08:21:15.072Z,30.80
2019-04-03T08:23:43.917Z,32.17
2019-04-03T08:26:12.687Z,26.43
2019-04-03T08:28:41.124Z,24.80
2019-04-03T08:31:11.570Z,26.23
2019-04-03T08:33:39.832Z,28.43
2019-04-03T08:36:08.317Z,36.30
2019-04-03T08:38:36.888Z,35.87
2019-04-03T08:41:05.577Z,38.37
2019-04-03T08:43:41.376Z,40.97
2019-04-03T08:46:10.934Z,39.13
2019-04-03T08:48:39.752Z,36.03
2019-04-03T08:51:08.318Z,38.67
2019-04-03T08:53:39.612Z,36.07
2019-04-03T08:56:07.265Z,37.27
2019-04-03T08:58:35.850Z,29.77
2019-04-03T09:01:05.324Z,28.87
2019-04-03T09:03:34.271Z,29.20
2019-04-03T09:06:02.795Z,29.73
2019-04-03T09:08:31.372Z,29.70
2019-04-03T09:10:59.842Z,26.47
2019-04-03T09:13:28.255Z,31.33
2019-04-03T09:15:58.715Z,29.60
2019-04-03T09:18:29.792Z,29.27
2019-04-03T09:20:57.184Z,33.17
2019-04-03T09:23:25.969Z,28.43
2019-04-03T09:25:54.446Z,33.17
2019-04-03T09:28:22.991Z,29.53
2019-04-03T09:30:53.963Z,30.17
2019-04-03T09:33:24.567Z,36.10
2019-04-03T09:35:52.109Z,38.80
2019-04-03T09:38:20.925Z,44.40
2019-04-03T09:40:49.609Z,41.20
2019-04-03T09:43:18.153Z,40.77
2019-04-03T09:45:48.293Z,36.77
2019-04-03T09:48:16.778Z,38.93
2019-04-03T09:50:46.914Z,41.73
2019-04-03T09:53:18.206Z,39.17
2019-04-03T09:55:47.833Z,39.17
2019-04-03T09:58:16.512Z,35.17
2019-04-03T10:00:45.505Z,35.90
2019-04-03T10:03:14.095Z,36.10
2019-04-03T10:05:42.959Z,35.80
2019-04-03T10:08:11.455Z,37.80
2019-04-03T10:10:40.222Z,37.33
2019-04-03T10:13:08.855Z,36.57
2019-04-03T10:15:37.403Z,34.97
2019-04-03T10:18:06.942Z,34.97
2019-04-03T10:20:36.166Z,35.37
2019-04-03T10:23:04.571Z,39.10
2019-04-03T10:25:33.052Z,40.97
2019-04-03T10:28:01.587Z,42.43
2019-04-03T10:30:30.010Z,44.43
2019-04-03T10:32:59.509Z,45.97
2019-04-03T10:35:28.631Z,42.13
2019-04-03T10:37:57.079Z,43.37
2019-04-03T10:40:25.525Z,43.73
2019-04-03T10:42:54.254Z,45.47
2019-04-03T10:45:22.659Z,50.23
2019-04-03T10:47:51.086Z,44.17
2019-04-03T10:50:19.586Z,46.90
2019-04-03T10:52:49.298Z,42.80
2019-04-03T10:55:18.211Z,40.93
2019-04-03T10:57:46.703Z,39.80
2019-04-03T11:00:15.528Z,29.17
2019-04-03T11:02:44.132Z,29.47
2019-04-03T11:05:13.134Z,31.87
2019-04-03T11:07:41.612Z,32.73
2019-04-03T11:10:11.088Z,28.37
2019-04-03T11:12:39.531Z,26.90
2019-04-03T11:15:10.799Z,25.97
2019-04-03T11:17:38.675Z,29.80
2019-04-03T11:20:09.660Z,28.33
2019-04-03T11:22:42.756Z,23.97
2019-04-03T11:25:08.213Z,30.83
2019-04-03T11:27:45.665Z,23.23
2019-04-03T11:30:10.998Z,25.50
2019-04-03T11:32:37.578Z,27.13
2019-04-03T11:35:06.169Z,24.50
2019-04-03T11:37:34.502Z,19.63
2019-04-03T11:40:05.441Z,25.87
2019-04-03T11:42:33.318Z,20.87
2019-04-03T11:45:04.615Z,19.10
2019-04-03T11:47:32.251Z,19.67
2019-04-03T11:50:01.073Z,14.30
2019-04-03T11:52:32.560Z,17.57
2019-04-03T11:55:05.703Z,16.27
2019-04-03T11:57:34.158Z,19.33
2019-04-03T12:00:03.239Z,17.40
2019-04-03T12:02:31.773Z,16.20
2019-04-03T12:05:00.151Z,14.27
2019-04-03T12:07:28.594Z,14.33
2019-04-03T12:09:57.245Z,11.43
2019-04-03T12:12:25.961Z,7.57
2019-04-03T12:14:54.759Z,8.53
2019-04-03T12:17:23.139Z,7.23
2019-04-03T12:19:51.578Z,7.10
2019-04-03T12:22:21.985Z,7.07
2019-04-03T12:24:51.302Z,6.50
2019-04-03T12:27:19.921Z,5.40
2019-04-03T12:29:48.625Z,5.43
2019-04-03T12:32:17.220Z,7.27
2019-04-03T12:34:45.550Z,6.17
2019-04-03T12:37:13.911Z,6.40
2019-04-03T12:39:42.332Z,5.80
2019-04-03T12:42:10.912Z,4.60
2019-04-03T12:44:39.318Z,5.57
2019-04-03T12:47:12.810Z,6.73
2019-04-03T12:49:38.040Z,7.33
2019-04-03T12:52:06.643Z,6.90
2019-04-03T12:54:35.063Z,8.63
2019-04-03T12:57:03.519Z,6.93
2019-04-03T12:59:31.867Z,10.43
2019-04-03T13:02:00.563Z,7.20
2019-04-03T13:04:31.167Z,6.23
2019-04-03T13:06:59.213Z,6.03
2019-04-03T13:09:27.732Z,5.70
2019-04-03T13:11:56.252Z,6.27
2019-04-03T13:14:27.008Z,5.97
2019-04-03T13:16:54.905Z,7.27
2019-04-03T13:19:24.462Z,6.20
2019-04-03T13:21:53.733Z,4.33
2019-04-03T13:24:22.718Z,4.20
2019-04-03T13:26:51.374Z,4.30
2019-04-03T13:29:21.656Z,2.87
2019-04-03T13:31:51.700Z,2.97
2019-04-03T13:34:20.222Z,5.33
2019-04-03T13:36:51.380Z,3.10
2019-04-03T13:39:19.932Z,3.20
2019-04-03T13:41:48.516Z,3.63
2019-04-03T13:44:16.970Z,3.20
2019-04-03T13:46:47.553Z,3.23
2019-04-03T13:49:18.067Z,2.90
2019-04-03T13:51:46.386Z,3.37
2019-04-03T13:54:15.279Z,4.73
2019-04-03T13:56:43.970Z,3.97
2019-04-03T13:59:12.446Z,3.10
2019-04-03T14:01:41.716Z,3.50
2019-04-03T14:04:10.613Z,4.37
2019-04-03T14:06:39.419Z,4.23
2019-04-03T14:09:07.961Z,3.33
2019-04-03T14:11:36.527Z,4.43
2019-04-03T14:14:05.472Z,5.43
2019-04-03T14:16:35.542Z,4.47
2019-04-03T14:19:04.142Z,4.13
2019-04-03T14:21:35.254Z,4.83
2019-04-03T14:24:02.795Z,3.83
2019-04-03T14:26:31.135Z,3.90
2019-04-03T14:28:59.590Z,3.43
2019-04-03T14:31:34.815Z,3.47
2019-04-03T14:33:58.466Z,3.57
2019-04-03T14:36:27.905Z,3.27
2019-04-03T14:38:56.314Z,3.13
2019-04-03T14:41:24.681Z,2.57
2019-04-03T14:43:53.038Z,3.07
2019-04-03T14:46:21.563Z,3.80
2019-04-03T14:48:50.488Z,2.80
2019-04-03T14:51:19.304Z,2.40
2019-04-03T14:53:48.211Z,2.73
2019-04-03T14:56:16.603Z,7.90
2019-04-03T14:58:45.049Z,3.60
2019-04-03T15:01:13.481Z,3.47
2019-04-03T15:03:42.390Z,2.67
2019-04-03T15:06:12.306Z,2.83
2019-04-03T15:08:41.092Z,3.87
2019-04-03T15:11:09.939Z,4.63
2019-04-03T15:13:38.796Z,2.70
2019-04-03T15:16:07.691Z,2.60
2019-04-03T15:18:36.314Z,3.00
2019-04-03T15:21:04.667Z,3.10
2019-04-03T15:23:35.720Z,3.07
2019-04-03T15:26:03.361Z,2.83
2019-04-03T15:28:32.386Z,3.17
2019-04-03T15:31:00.960Z,2.67
2019-04-03T15:33:29.555Z,4.13
2019-04-03T15:35:57.875Z,3.07
2019-04-03T15:38:26.650Z,3.30
2019-04-03T15:40:57.220Z,2.97
2019-04-03T15:43:25.649Z,4.27
2019-04-03T15:45:56.368Z,7.03
2019-04-03T15:48:24.418Z,3.60
2019-04-03T15:50:53.300Z,3.57
2019-04-03T15:53:23.700Z,3.07
2019-04-03T15:55:52.308Z,5.03
2019-04-03T15:58:20.872Z,4.60
2019-04-03T16:00:49.488Z,4.67
2019-04-03T16:03:18.797Z,3.47
2019-04-03T16:05:47.467Z,3.20
2019-04-03T16:08:16.242Z,2.47
2019-04-03T16:10:45.187Z,3.43
2019-04-03T16:13:15.829Z,3.43
2019-04-03T16:15:44.637Z,4.57
2019-04-03T16:18:13.568Z,2.83
2019-04-03T16:20:42.625Z,2.33
2019-04-03T16:23:11.094Z,3.43
2019-04-03T16:25:39.466Z,3.67
2019-04-03T16:28:07.905Z,3.10
2019-04-03T16:30:36.259Z,2.40
2019-04-03T16:33:06.277Z,3.20
2019-04-03T16:35:34.850Z,4.80
2019-04-03T16:38:03.547Z,4.40
2019-04-03T16:40:32.425Z,3.50
2019-04-03T16:43:01.476Z,4.47
2019-04-03T16:45:29.967Z,3.73
2019-04-03T16:47:58.398Z,3.87
2019-04-03T16:50:27.959Z,3.57
2019-04-03T16:52:56.676Z,3.17
2019-04-03T16:55:25.235Z,2.90
2019-04-03T16:57:55.306Z,4.47
2019-04-03T17:00:25.460Z,4.53
2019-04-03T17:02:55.885Z,6.53
2019-04-03T17:05:24.054Z,5.13
2019-04-03T17:07:54.286Z,2.80
2019-04-03T17:10:22.682Z,4.53
2019-04-03T17:12:51.109Z,3.20
2019-04-03T17:15:19.542Z,3.07
2019-04-03T17:17:47.915Z,3.03
2019-04-03T17:20:16.347Z,2.80
2019-04-03T17:22:46.597Z,3.77
2019-04-03T17:25:15.194Z,5.70
2019-04-03T17:27:54.079Z,3.33
2019-04-03T17:30:13.924Z,4.30
2019-04-03T17:32:42.498Z,5.50
2019-04-03T17:35:12.008Z,5.93
2019-04-03T17:37:41.087Z,4.03
2019-04-03T17:40:10.444Z,3.37
2019-04-03T17:42:39.912Z,5.33
2019-04-03T17:45:08.761Z,4.27
2019-04-03T17:47:37.328Z,5.63
2019-04-03T17:50:06.277Z,6.10
2019-04-03T17:52:36.383Z,4.20
2019-04-03T17:55:05.523Z,5.50
2019-04-03T17:57:33.974Z,6.50
2019-04-03T18:00:02.506Z,6.77
2019-04-03T18:02:30.918Z,8.23
2019-04-03T18:04:59.341Z,8.83
2019-04-03T18:07:28.392Z,11.17
2019-04-03T18:09:57.359Z,8.70
2019-04-03T18:12:25.725Z,10.43
2019-04-03T18:14:55.697Z,7.83
2019-04-03T18:17:24.372Z,7.67
2019-04-03T18:19:52.750Z,6.67
2019-04-03T18:22:21.311Z,4.90
2019-04-03T18:24:49.823Z,3.47
2019-04-03T18:27:18.357Z,4.73
2019-04-03T18:29:46.730Z,6.13
2019-04-03T18:32:15.532Z,8.20
2019-04-03T18:34:44.382Z,7.00
2019-04-03T18:37:12.919Z,5.80
2019-04-03T18:39:41.351Z,7.53
2019-04-03T18:42:10.906Z,6.97
2019-04-03T18:44:39.573Z,6.87
2019-04-03T18:47:07.964Z,8.23
2019-04-03T18:49:36.476Z,8.87
2019-04-03T18:52:07.711Z,9.53
2019-04-03T18:54:35.015Z,8.23
2019-04-03T18:57:03.442Z,7.53
2019-04-03T18:59:31.835Z,8.83
2019-04-03T19:02:00.231Z,7.63
2019-04-03T19:04:28.678Z,7.83
2019-04-03T19:06:57.131Z,9.93
2019-04-03T19:09:26.159Z,9.67
2019-04-03T19:12:08.031Z,9.53
2019-04-03T19:14:31.592Z,11.10
2019-04-03T19:16:59.588Z,7.40
2019-04-03T19:19:27.950Z,8.67
2019-04-03T19:21:56.438Z,7.07
2019-04-03T19:24:25.252Z,6.50
2019-04-03T19:26:53.802Z,7.70
2019-04-03T19:29:22.146Z,7.13
2019-04-03T19:31:50.619Z,6.37
2019-04-03T19:34:20.141Z,7.03
2019-04-03T19:36:49.475Z,7.67
2019-04-03T19:39:17.911Z,8.77
2019-04-03T19:41:46.346Z,9.57
2019-04-03T19:44:16.181Z,9.83
2019-04-03T19:46:44.905Z,10.00
2019-04-03T19:49:14.354Z,9.67
2019-04-03T19:51:42.820Z,8.40
2019-04-03T19:54:11.358Z,9.45
2019-04-03T19:56:39.795Z,9.17
2019-04-03T19:59:08.281Z,9.17
2019-04-03T20:01:38.671Z,7.97
2019-04-03T20:04:06.722Z,8.90
2019-04-03T20:06:35.209Z,9.80
2019-04-03T20:09:05.327Z,7.87
2019-04-03T20:11:35.981Z,8.27
2019-04-03T20:14:05.971Z,6.63
2019-04-03T20:16:34.398Z,7.10
2019-04-03T20:19:08.661Z,8.53
2019-04-03T20:21:37.050Z,8.10
2019-04-03T20:24:05.483Z,6.03
2019-04-03T20:26:33.865Z,6.97
2019-04-03T20:29:03.431Z,8.70
2019-04-03T20:31:31.866Z,6.40
2019-04-03T20:34:00.323Z,6.07
2019-04-03T20:36:28.823Z,8.03
2019-04-03T20:38:58.330Z,5.80
2019-04-03T20:41:27.989Z,6.37
2019-04-03T20:43:56.504Z,7.03
2019-04-03T20:46:26.031Z,6.97
2019-04-03T20:48:54.379Z,6.93
2019-04-03T20:51:23.023Z,6.33
2019-04-03T20:53:51.494Z,7.03
2019-04-03T20:56:20.024Z,7.47
2019-04-03T20:58:55.860Z,12.70
2019-04-03T21:01:18.602Z,7.23
2019-04-03T21:03:47.079Z,6.63
2019-04-03T21:06:15.494Z,8.27
2019-04-03T21:08:44.122Z,8.47
2019-04-03T21:11:12.567Z,8.07
2019-04-03T21:13:44.204Z,7.73
2019-04-03T21:16:12.654Z,8.23
2019-04-03T21:18:41.195Z,9.33
2019-04-03T21:21:09.659Z,14.87
2019-04-03T21:23:38.061Z,10.30
2019-04-03T21:26:07.430Z,11.37
2019-04-03T21:28:36.007Z,10.93
2019-04-03T21:31:04.471Z,15.60
2019-04-03T21:33:32.970Z,8.37
2019-04-03T21:36:01.363Z,8.90
2019-04-03T21:38:29.750Z,12.67
2019-04-03T21:40:58.181Z,13.27
2019-04-03T21:43:27.215Z,11.43
2019-04-03T21:45:56.778Z,11.87
2019-04-03T21:48:25.163Z,11.17
2019-04-03T21:50:53.511Z,13.13
2019-04-03T21:53:24.191Z,11.40
2019-04-03T21:55:52.224Z,12.23
2019-04-03T21:58:20.588Z,12.67
2019-04-03T22:01:17.775Z,11.30
2019-04-03T22:03:46.590Z,13.27
2019-04-03T22:06:15.034Z,16.77
2019-04-03T22:08:43.496Z,15.00
2019-04-03T22:11:12.107Z,13.90
2019-04-03T22:13:40.494Z,13.87
2019-04-03T22:16:09.091Z,15.47
2019-04-03T22:18:37.566Z,20.07
2019-04-03T22:21:06.098Z,16.37
2019-04-03T22:23:35.923Z,16.90
2019-04-03T22:26:04.934Z,15.83
2019-04-03T22:28:33.475Z,16.60
2019-04-03T22:31:01.907Z,12.80
2019-04-03T22:33:30.344Z,15.03
2019-04-03T22:35:58.736Z,12.57
2019-04-03T22:38:27.200Z,13.77
2019-04-03T22:40:55.584Z,14.97
2019-04-03T22:43:24.300Z,14.50
2019-04-03T22:45:52.730Z,13.07
2019-04-03T22:48:21.198Z,23.90
2019-04-03T22:50:49.639Z,14.67
2019-04-03T22:53:21.198Z,13.20
2019-04-03T22:55:49.731Z,18.13
2019-04-03T22:58:19.029Z,15.73
2019-04-03T23:00:48.323Z,13.60
2019-04-03T23:03:16.760Z,15.23
2019-04-03T23:05:47.729Z,14.67
2019-04-03T23:08:15.312Z,16.43
2019-04-03T23:10:43.759Z,17.37
2019-04-03T23:13:12.710Z,14.53
2019-04-03T23:15:41.198Z,15.60
2019-04-03T23:18:09.672Z,12.13
2019-04-03T23:20:38.138Z,15.90
2019-04-03T23:23:06.506Z,14.80
2019-04-03T23:25:34.906Z,16.43
2019-04-03T23:28:03.696Z,14.33
2019-04-03T23:30:32.126Z,14.87
2019-04-03T23:33:00.509Z,16.40
2019-04-03T23:35:28.988Z,15.33
2019-04-03T23:37:57.362Z,14.33
2019-04-03T23:40:25.834Z,17.47
2019-04-03T23:42:54.239Z,15.10
2019-04-03T23:45:23.578Z,15.23
2019-04-03T23:47:52.040Z,16.43
2019-04-03T23:50:22.002Z,16.03
2019-04-03T23:52:50.524Z,14.47
2019-04-03T23:55:18.908Z,14.10
2019-04-03T23:57:47.397Z,18.57
